Time;durP1;ratioP1;P1;durP2;ratioP2;P2;SDS_P1;SDS_P2;PMS_P1;PMS_P2;Temp;Humidity;BMP_temperature;BMP_pressure;BME280_temperature;BME280_humidity;BME280_pressure;Samples;Min_cycle;Max_cycle;Signal;HPM_P1;HPM_P2
2022/07/11 00:02:17;;;;;;;2.00;1.00;;;;;;;11.76;78.46;100149.70;130231;1268;109049;-78
2022/07/11 00:05:23;;;;;;;2.20;1.00;;;;;;;11.77;78.39;100141.57;130227;1268;109211;-79
2022/07/11 00:08:28;;;;;;;2.70;1.30;;;;;;;11.80;78.82;100139.67;130251;1267;108861;-79
2022/07/11 00:11:34;;;;;;;2.40;1.40;;;;;;;11.79;78.42;100144.58;130213;1268;109022;-77
2022/07/11 00:14:40;;;;;;;2.00;1.20;;;;;;;11.77;78.53;100149.77;130221;1268;108959;-75
2022/07/11 00:17:45;;;;;;;4.50;1.50;;;;;;;11.71;78.57;100155.39;130236;1268;108857;-75
2022/07/11 00:20:51;;;;;;;3.00;1.40;;;;;;;11.64;79.28;100157.58;130219;1267;107465;-78
2022/07/11 00:23:56;;;;;;;2.40;1.20;;;;;;;11.61;79.12;100154.92;130208;1268;108731;-77
2022/07/11 00:27:02;;;;;;;3.90;1.30;;;;;;;11.65;78.87;100153.60;130303;1268;108849;-77
2022/07/11 00:30:10;;;;;;;2.70;1.60;;;;;;;11.71;78.80;100155.80;130251;1268;107519;-75
2022/07/11 00:33:15;;;;;;;3.00;1.20;;;;;;;11.69;79.11;100160.47;130283;1268;108313;-75
2022/07/11 00:36:21;;;;;;;2.60;1.30;;;;;;;11.68;79.17;100160.73;130219;1268;108960;-75
2022/07/11 00:39:26;;;;;;;1.80;1.20;;;;;;;11.68;79.24;100162.52;130228;1268;108801;-76
2022/07/11 00:42:31;;;;;;;2.90;1.30;;;;;;;11.68;79.10;100161.10;130194;1268;109116;-76
2022/07/11 00:45:37;;;;;;;2.90;1.30;;;;;;;11.68;79.10;100162.00;130327;1268;108754;-83
2022/07/11 00:48:42;;;;;;;2.50;1.30;;;;;;;11.65;79.51;100161.25;130351;1268;108818;-81
2022/07/11 00:51:48;;;;;;;3.90;1.60;;;;;;;11.60;79.69;100158.30;130325;1268;108746;-82
2022/07/11 00:54:54;;;;;;;3.10;1.40;;;;;;;11.56;79.65;100157.29;130372;1268;108748;-81
2022/07/11 00:58:00;;;;;;;1.50;1.10;;;;;;;11.58;79.27;100157.66;130446;1268;108925;-80
2022/07/11 01:01:06;;;;;;;5.90;1.20;;;;;;;11.61;79.40;100151.27;130271;1268;108736;-79
2022/07/11 01:04:11;;;;;;;3.90;1.50;;;;;;;11.63;79.50;100147.42;130297;1267;108869;-79
2022/07/11 01:07:17;;;;;;;4.40;1.60;;;;;;;11.60;79.43;100143.39;130293;1268;109024;-79
2022/07/11 01:10:23;;;;;;;4.80;2.00;;;;;;;11.63;79.43;100142.50;130049;1268;358403;-79
2022/07/11 01:13:28;;;;;;;4.20;1.50;;;;;;;11.68;79.53;100143.27;130284;1268;108880;-79
2022/07/11 01:16:34;;;;;;;2.60;1.30;;;;;;;11.71;79.11;100142.60;130286;1268;108847;-77
2022/07/11 01:19:39;;;;;;;2.90;1.70;;;;;;;11.72;78.94;100137.25;130270;1268;108786;-78
2022/07/11 01:22:48;;;;;;;3.50;1.50;;;;;;;11.76;79.41;100137.39;130294;1268;108775;-78
2022/07/11 01:25:55;;;;;;;3.60;1.50;;;;;;;11.77;79.47;100135.89;130268;1268;108869;-77
2022/07/11 01:29:07;;;;;;;3.80;1.50;;;;;;;11.71;79.76;100132.59;130293;1268;108739;-77
2022/07/11 01:32:12;;;;;;;3.40;1.40;;;;;;;11.67;79.69;100137.11;130274;1268;108905;-81
2022/07/11 01:35:18;;;;;;;6.20;1.30;;;;;;;11.65;80.13;100134.88;130278;1268;108797;-76
2022/07/11 01:38:23;;;;;;;3.30;1.30;;;;;;;11.65;80.11;100132.02;130228;1268;108795;-78
2022/07/11 01:41:29;;;;;;;6.20;1.50;;;;;;;11.74;79.82;100125.90;130208;1268;108697;-77
2022/07/11 01:44:34;;;;;;;1.70;1.30;;;;;;;11.84;79.92;100124.98;130255;1268;109173;-77
2022/07/11 01:47:40;;;;;;;3.00;1.30;;;;;;;11.92;79.53;100122.20;130239;1268;108822;-77
2022/07/11 01:50:46;;;;;;;2.50;1.20;;;;;;;11.90;79.72;100121.67;130222;1268;109089;-77
2022/07/11 01:53:52;;;;;;;3.00;1.50;;;;;;;11.84;79.54;100116.95;130468;1268;108745;-80
2022/07/11 01:56:57;;;;;;;4.60;1.30;;;;;;;11.82;79.81;100116.10;130429;1268;107210;-80
2022/07/11 02:00:03;;;;;;;3.10;1.40;;;;;;;11.83;80.30;100116.36;130312;1268;108748;-83
2022/07/11 02:03:10;;;;;;;2.00;1.30;;;;;;;11.87;80.07;100113.09;130366;1268;108913;-78
2022/07/11 02:06:16;;;;;;;3.00;1.40;;;;;;;11.96;80.03;100111.23;130250;1268;108857;-76
2022/07/11 02:09:21;;;;;;;2.70;1.20;;;;;;;12.02;79.94;100107.42;130245;1268;108840;-76
2022/07/11 02:12:27;;;;;;;2.40;1.20;;;;;;;12.09;79.64;100104.19;130226;1268;108864;-75
2022/07/11 02:15:32;;;;;;;1.60;1.20;;;;;;;12.14;79.57;100107.13;130280;1268;107742;-75
2022/07/11 02:18:38;;;;;;;6.50;1.30;;;;;;;12.21;79.64;100109.59;130248;1268;108978;-74
2022/07/11 02:21:43;;;;;;;3.50;1.30;;;;;;;12.28;79.71;100112.41;130242;1268;108758;-74
2022/07/11 02:24:48;;;;;;;2.90;1.20;;;;;;;12.33;79.57;100117.89;130205;1268;108867;-74
2022/07/11 02:27:54;;;;;;;3.30;1.40;;;;;;;12.38;79.33;100118.50;130210;1268;108875;-74
2022/07/11 02:30:59;;;;;;;3.70;1.20;;;;;;;12.39;79.31;100120.00;130232;1268;109184;-73
2022/07/11 02:34:05;;;;;;;1.30;1.10;;;;;;;12.40;79.34;100119.20;130234;1268;108886;-75
2022/07/11 02:37:10;;;;;;;1.80;1.10;;;;;;;12.41;79.49;100123.66;130218;1268;108273;-74
2022/07/11 02:40:16;;;;;;;3.70;1.40;;;;;;;12.44;79.43;100125.51;130246;1268;108796;-74
2022/07/11 02:43:21;;;;;;;2.00;1.20;;;;;;;12.47;79.47;100125.64;130225;1268;108747;-77
2022/07/11 02:46:27;;;;;;;2.50;1.20;;;;;;;12.47;79.29;100124.78;130253;1268;108528;-74
2022/07/11 02:49:33;;;;;;;2.70;1.30;;;;;;;12.46;79.18;100124.23;130282;1268;108804;-76
2022/07/11 02:52:39;;;;;;;1.80;0.90;;;;;;;12.44;79.10;100126.41;130209;1268;109078;-79
2022/07/11 02:55:45;;;;;;;2.90;1.20;;;;;;;12.42;79.27;100124.08;130233;1268;109674;-77
2022/07/11 02:58:51;;;;;;;3.00;1.00;;;;;;;12.43;79.35;100126.55;130224;1268;109728;-76
2022/07/11 03:01:56;;;;;;;2.00;1.10;;;;;;;12.45;79.40;100123.40;130207;1268;108802;-74
2022/07/11 03:05:02;;;;;;;2.20;1.20;;;;;;;12.48;79.17;100125.95;130238;1268;108851;-75
2022/07/11 03:08:07;;;;;;;2.60;1.00;;;;;;;12.49;79.20;100124.71;130288;1268;108874;-75
2022/07/11 03:11:13;;;;;;;1.70;1.10;;;;;;;12.50;79.26;100123.81;130357;1268;108819;-76
2022/07/11 03:14:18;;;;;;;2.20;1.50;;;;;;;12.48;79.10;100121.54;130282;1268;108895;-75
2022/07/11 03:17:24;;;;;;;2.70;1.10;;;;;;;12.46;78.95;100120.30;130258;1268;108731;-76
2022/07/11 03:20:30;;;;;;;2.00;1.10;;;;;;;12.45;79.06;100119.66;130245;1268;108682;-76
2022/07/11 03:23:35;;;;;;;3.10;1.30;;;;;;;12.47;79.01;100112.63;130239;1268;109315;-75
2022/07/11 03:26:41;;;;;;;1.50;1.20;;;;;;;12.51;78.91;100116.00;130244;1268;108731;-75
2022/07/11 03:29:46;;;;;;;2.30;1.20;;;;;;;12.55;78.92;100116.70;130248;1268;107270;-75
2022/07/11 03:32:51;;;;;;;3.90;1.00;;;;;;;12.62;78.91;100120.11;130296;1268;108925;-75
2022/07/11 03:35:57;;;;;;;2.60;1.00;;;;;;;12.68;78.98;100121.56;130271;1268;108838;-76
2022/07/11 03:39:03;;;;;;;2.60;1.30;;;;;;;12.73;79.10;100118.05;130257;1268;108830;-75
2022/07/11 03:42:08;;;;;;;2.30;1.10;;;;;;;12.79;78.85;100123.13;130233;1268;108987;-75
2022/07/11 03:45:14;;;;;;;3.30;1.20;;;;;;;12.86;79.05;100123.88;130235;1268;108815;-75
2022/07/11 03:48:19;;;;;;;2.10;1.20;;;;;;;12.93;78.97;100127.40;130228;1268;108719;-75
2022/07/11 03:51:24;;;;;;;3.50;1.30;;;;;;;13.02;79.01;100132.02;130215;1268;108751;-76
2022/07/11 03:59:48;;;;;;;4.00;1.60;;;;;;;13.16;79.06;100128.58;130256;1268;109254;-75
2022/07/11 04:02:54;;;;;;;4.60;1.60;;;;;;;13.20;79.18;100131.17;130219;1267;108775;-75
2022/07/11 04:05:59;;;;;;;2.20;1.10;;;;;;;13.24;79.25;100130.19;130221;1267;108781;-75
2022/07/11 04:09:04;;;;;;;2.60;1.30;;;;;;;13.30;79.24;100130.05;130240;1267;108959;-75
2022/07/11 04:12:10;;;;;;;1.90;1.50;;;;;;;13.37;79.19;100131.97;130229;1268;108795;-75
2022/07/11 04:15:16;;;;;;;3.10;1.50;;;;;;;13.45;79.13;100120.80;130316;1267;108928;-76
2022/07/11 04:18:21;;;;;;;4.60;1.60;;;;;;;13.53;79.19;100116.05;130449;1268;108516;-75
2022/07/11 04:21:26;;;;;;;1.50;1.20;;;;;;;13.60;79.23;100116.80;130379;1268;107864;-75
2022/07/11 04:24:32;;;;;;;1.60;1.20;;;;;;;13.65;79.20;100118.95;130489;1268;108858;-76
2022/07/11 04:27:37;;;;;;;5.00;1.80;;;;;;;13.72;79.25;100117.58;130463;1268;107877;-75
2022/07/11 04:30:43;;;;;;;3.60;1.50;;;;;;;13.81;79.40;100117.33;130378;1268;108932;-75
2022/07/11 04:33:48;;;;;;;3.70;1.70;;;;;;;13.93;79.42;100114.65;130191;1271;108646;-76
2022/07/11 04:36:54;;;;;;;2.30;1.50;;;;;;;14.03;79.27;100112.58;130373;1267;108949;-75
2022/07/11 04:39:59;;;;;;;3.70;1.40;;;;;;;14.11;79.24;100105.08;130369;1268;108704;-76
2022/07/11 04:43:05;;;;;;;2.20;1.60;;;;;;;14.20;79.40;100105.98;130384;1268;108848;-75
2022/07/11 04:46:10;;;;;;;4.60;1.60;;;;;;;14.29;78.97;100105.79;130429;1268;108128;-77
2022/07/11 04:49:16;;;;;;;2.60;1.50;;;;;;;14.35;79.08;100105.65;130358;1268;108900;-77
2022/07/11 04:52:26;;;;;;;4.90;1.90;;;;;;;14.43;79.23;100105.36;130376;1268;108794;-76
2022/07/11 04:55:31;;;;;;;3.10;1.50;;;;;;;14.56;79.00;100107.23;130400;1268;108875;-76
2022/07/11 04:58:37;;;;;;;4.40;2.10;;;;;;;14.67;78.87;100103.27;130344;1268;108792;-77
2022/07/11 05:01:42;;;;;;;3.80;1.80;;;;;;;14.75;78.86;100101.27;130493;1268;108706;-76
2022/07/11 05:04:48;;;;;;;4.30;1.80;;;;;;;14.80;78.77;100100.88;130340;1268;108908;-76
2022/07/11 05:07:53;;;;;;;4.00;1.80;;;;;;;14.77;78.62;100099.73;130370;1268;108811;-77
2022/07/11 05:10:58;;;;;;;3.90;1.60;;;;;;;14.80;78.71;100102.99;130480;1268;108768;-77
2022/07/11 05:14:04;;;;;;;6.20;2.10;;;;;;;14.85;78.59;100105.29;130399;1268;108872;-78
2022/07/11 05:17:09;;;;;;;5.40;1.70;;;;;;;14.83;78.38;100104.58;130337;1268;108755;-76
2022/07/11 05:20:15;;;;;;;3.60;1.90;;;;;;;14.92;78.64;100105.18;130147;1270;108680;-75
2022/07/11 05:23:20;;;;;;;4.20;1.80;;;;;;;15.06;78.32;100106.33;130397;1267;108909;-75
2022/07/11 05:26:26;;;;;;;3.10;1.70;;;;;;;15.13;78.02;100108.53;130404;1268;109248;-75
2022/07/11 05:29:31;;;;;;;4.10;1.70;;;;;;;15.10;77.84;100114.61;130443;1268;108922;-79
2022/07/11 05:32:37;;;;;;;2.80;2.10;;;;;;;14.96;77.92;100120.25;130490;1268;108726;-76
2022/07/11 05:35:42;;;;;;;4.30;1.80;;;;;;;14.90;77.94;100123.63;130456;1267;108768;-83
2022/07/11 05:38:48;;;;;;;4.30;2.10;;;;;;;14.89;78.53;100127.38;130566;1267;108795;-78
2022/07/11 05:41:53;;;;;;;2.80;1.70;;;;;;;15.04;78.47;100127.50;130418;1266;109123;-77
2022/07/11 05:44:58;;;;;;;5.30;2.20;;;;;;;15.28;78.07;100128.04;130419;1268;108821;-78
2022/07/11 05:48:04;;;;;;;4.50;2.20;;;;;;;15.28;78.00;100134.48;130418;1267;108790;-78
2022/07/11 05:51:09;;;;;;;4.80;2.30;;;;;;;15.26;77.53;100136.52;130517;1268;108764;-76
2022/07/11 05:54:16;;;;;;;4.10;2.10;;;;;;;15.25;77.62;100129.91;130506;1268;108790;-76
2022/07/11 05:57:22;;;;;;;3.60;2.00;;;;;;;15.40;78.08;100127.20;130511;1268;107167;-75
2022/07/11 06:00:27;;;;;;;3.90;2.20;;;;;;;15.51;78.19;100126.05;130336;1268;108625;-75
2022/07/11 06:03:32;;;;;;;3.40;2.40;;;;;;;15.70;78.00;100126.99;130394;1268;108604;-76
2022/07/11 06:06:38;;;;;;;7.50;3.10;;;;;;;15.87;77.34;100131.33;130375;1268;108861;-76
2022/07/11 06:09:43;;;;;;;5.10;2.70;;;;;;;15.97;77.11;100136.20;130383;1268;108933;-76
2022/07/11 06:12:49;;;;;;;6.50;3.10;;;;;;;16.01;76.70;100133.71;130322;1268;108490;-76
2022/07/11 06:15:54;;;;;;;3.50;2.90;;;;;;;15.92;76.80;100138.50;130320;1268;108746;-75
2022/07/11 06:19:00;;;;;;;5.70;3.30;;;;;;;15.74;76.26;100143.30;130391;1268;110221;-76
2022/07/11 06:22:05;;;;;;;5.10;3.00;;;;;;;15.33;76.39;100146.74;130362;1268;107029;-75
2022/07/11 06:25:11;;;;;;;4.60;3.30;;;;;;;15.06;77.31;100155.91;130388;1268;108252;-76
2022/07/11 06:28:16;;;;;;;5.70;3.40;;;;;;;14.87;77.64;100156.58;130299;1268;108636;-75
2022/07/11 06:31:22;;;;;;;6.70;3.30;;;;;;;14.66;78.02;100156.66;130248;1270;108854;-75
2022/07/11 06:34:27;;;;;;;6.80;3.10;;;;;;;14.50;78.51;100154.27;130458;1267;109050;-76
2022/07/11 06:37:35;;;;;;;7.60;3.50;;;;;;;14.75;78.52;100154.24;130387;1267;108177;-76
2022/07/11 06:40:42;;;;;;;4.80;3.80;;;;;;;15.13;77.96;100153.86;130555;1268;108952;-76
2022/07/11 06:43:47;;;;;;;4.50;3.30;;;;;;;15.31;77.40;100157.90;130733;1268;108669;-76
2022/07/11 06:46:53;;;;;;;5.90;3.20;;;;;;;15.34;77.39;100159.02;130347;1268;108293;-76
2022/07/11 06:49:58;;;;;;;6.30;3.30;;;;;;;15.45;76.96;100155.35;130368;1267;108718;-76
2022/07/11 06:53:04;;;;;;;6.10;3.30;;;;;;;15.70;76.79;100154.39;130360;1268;108761;-76
2022/07/11 06:56:10;;;;;;;5.30;3.60;;;;;;;15.96;76.74;100149.10;130366;1268;108577;-76
2022/07/11 06:59:15;;;;;;;5.80;3.10;;;;;;;16.14;75.64;100146.14;130376;1268;109048;-77
2022/07/11 07:02:23;;;;;;;5.20;3.00;;;;;;;16.45;76.75;100140.98;130363;1268;108724;-77
2022/07/11 07:05:28;;;;;;;4.00;2.60;;;;;;;16.88;75.74;100140.55;130462;1268;108738;-77
2022/07/11 07:08:34;;;;;;;6.40;3.00;;;;;;;17.37;75.26;100138.05;130366;1268;108972;-76
2022/07/11 07:11:39;;;;;;;7.10;2.70;;;;;;;17.78;74.07;100138.66;130392;1268;108824;-76
2022/07/11 07:14:45;;;;;;;4.80;2.50;;;;;;;17.89;73.46;100139.10;130449;1268;107528;-76
2022/07/11 07:17:50;;;;;;;5.10;2.60;;;;;;;18.01;72.95;100144.23;130369;1268;108936;-77
2022/07/11 07:20:55;;;;;;;3.90;2.30;;;;;;;17.97;73.44;100137.33;130366;1268;108719;-76
2022/07/11 07:24:01;;;;;;;5.10;2.60;;;;;;;17.90;70.60;100139.89;130180;1271;109010;-77
2022/07/11 07:27:07;;;;;;;3.80;2.30;;;;;;;17.52;71.73;100143.85;130333;1268;108573;-77
2022/07/11 07:30:12;;;;;;;3.80;1.90;;;;;;;17.28;72.35;100142.33;130405;1268;108551;-76
2022/07/11 07:33:18;;;;;;;3.90;2.10;;;;;;;16.91;71.60;100141.30;130357;1267;108877;-76
2022/07/11 07:36:23;;;;;;;3.50;1.90;;;;;;;16.54;71.90;100137.55;130415;1268;107954;-77
2022/07/11 07:39:29;;;;;;;5.40;1.90;;;;;;;16.31;72.74;100142.20;130440;1267;108932;-76
2022/07/11 07:42:34;;;;;;;3.70;2.10;;;;;;;16.15;72.88;100147.09;130369;1268;109088;-76
2022/07/11 07:45:40;;;;;;;4.10;2.10;;;;;;;15.93;72.93;100157.52;130325;1268;108718;-76
2022/07/11 07:48:45;;;;;;;4.20;2.10;;;;;;;15.79;73.64;100159.14;130351;1268;108747;-76
2022/07/11 07:51:51;;;;;;;4.00;2.60;;;;;;;15.73;73.85;100164.98;130189;1270;108807;-77
2022/07/11 07:54:57;;;;;;;2.50;2.00;;;;;;;15.62;73.72;100170.66;130371;1268;108767;-77
2022/07/11 07:58:02;;;;;;;1.70;1.40;;;;;;;15.47;73.48;100167.66;130344;1268;108832;-77
2022/07/11 08:04:31;;;;;;;2.60;1.40;;;;;;;15.31;72.57;100166.88;130343;1268;108449;-75
2022/07/11 08:07:36;;;;;;;2.20;1.10;;;;;;;15.24;72.65;100167.59;130409;1268;108722;-75
2022/07/11 08:10:42;;;;;;;1.90;1.10;;;;;;;15.24;72.53;100170.75;130416;1268;108847;-76
2022/07/11 08:13:48;;;;;;;1.70;1.50;;;;;;;15.23;72.91;100169.62;130385;1268;108834;-75
2022/07/11 08:16:54;;;;;;;2.20;1.50;;;;;;;15.31;73.09;100168.73;130382;1268;107521;-76
2022/07/11 08:19:59;;;;;;;4.20;2.30;;;;;;;15.39;73.49;100168.23;130414;1268;108325;-75
2022/07/11 08:23:05;;;;;;;3.20;1.70;;;;;;;15.56;74.27;100166.04;130414;1268;108911;-75
2022/07/11 08:26:10;;;;;;;2.90;1.60;;;;;;;15.80;74.15;100167.52;130408;1268;108723;-77
2022/07/11 08:29:16;;;;;;;3.20;1.60;;;;;;;16.12;73.89;100162.55;130478;1268;108093;-76
2022/07/11 08:32:21;;;;;;;2.70;2.00;;;;;;;16.54;73.84;100161.08;130194;1271;107317;-75
2022/07/11 08:35:26;;;;;;;4.00;2.10;;;;;;;16.73;72.80;100161.89;130217;1271;108771;-75
2022/07/11 08:38:32;;;;;;;4.30;2.10;;;;;;;16.90;72.91;100155.61;130302;1268;108820;-75
2022/07/11 08:41:43;;;;;;;3.00;1.80;;;;;;;17.09;70.97;100154.66;130347;1268;107711;-77
2022/07/11 08:44:48;;;;;;;2.40;1.50;;;;;;;17.08;70.60;100152.99;130421;1268;107214;-75
2022/07/11 08:47:57;;;;;;;1.90;1.20;;;;;;;17.19;70.58;100143.95;130473;1268;108871;-74
2022/07/11 08:51:03;;;;;;;3.60;1.20;;;;;;;17.24;67.90;100149.40;130237;1270;108360;-75
2022/07/11 08:54:08;;;;;;;1.30;1.10;;;;;;;17.11;68.08;100139.04;130502;1268;108796;-75
2022/07/11 08:57:15;;;;;;;0.90;0.80;;;;;;;17.15;68.24;100143.71;130415;1268;108631;-75
2022/07/11 09:00:20;;;;;;;1.00;0.90;;;;;;;17.21;67.14;100136.89;130252;1268;108093;-75
2022/07/11 09:03:26;;;;;;;1.60;1.10;;;;;;;17.19;66.64;100136.81;130456;1268;108773;-75
2022/07/11 09:06:31;;;;;;;1.30;1.10;;;;;;;17.05;67.36;100133.16;130377;1268;108666;-75
2022/07/11 09:09:37;;;;;;;1.70;1.10;;;;;;;16.86;67.96;100142.52;130331;1268;108920;-75
2022/07/11 09:13:00;;;;;;;1.30;1.10;;;;;;;16.59;67.89;100138.58;130366;1268;108764;-75
2022/07/11 09:16:08;;;;;;;1.40;1.10;;;;;;;16.36;67.74;100145.17;130390;1268;108887;-75
2022/07/11 09:19:24;;;;;;;3.30;1.30;;;;;;;16.11;68.00;100142.17;130390;1268;108774;-75
2022/07/11 09:25:57;;;;;;;2.80;1.10;;;;;;;15.86;68.83;100148.09;130344;1268;108763;-75
2022/07/11 09:29:05;;;;;;;1.60;1.10;;;;;;;15.85;68.79;100146.54;130315;1268;108715;-74
2022/07/11 09:32:11;;;;;;;2.90;1.60;;;;;;;15.87;69.04;100146.40;130416;1268;108787;-75
2022/07/11 09:35:16;;;;;;;1.90;1.60;;;;;;;16.08;68.88;100147.48;130443;1268;108774;-75
2022/07/11 09:38:22;;;;;;;2.30;1.60;;;;;;;16.38;69.30;100143.45;130440;1268;108862;-76
2022/07/11 09:41:31;;;;;;;2.30;1.60;;;;;;;16.90;69.26;100138.92;130415;1268;108864;-75
2022/07/11 09:44:37;;;;;;;1.80;1.40;;;;;;;17.41;68.55;100132.35;130455;1268;108678;-76
2022/07/11 09:47:47;;;;;;;2.20;1.40;;;;;;;17.72;67.85;100125.39;130449;1268;108749;-76
2022/07/11 09:51:04;;;;;;;4.00;1.80;;;;;;;18.10;67.68;100116.75;130468;1267;108692;-76
2022/07/11 09:54:10;;;;;;;2.10;1.20;;;;;;;18.37;65.70;100118.65;130229;1267;107718;-75
2022/07/11 09:57:15;;;;;;;2.20;1.20;;;;;;;18.31;64.88;100126.41;130438;1267;108611;-78
2022/07/11 10:00:21;;;;;;;2.20;1.20;;;;;;;17.95;63.96;100132.75;130440;1268;108863;-77
2022/07/11 10:03:29;;;;;;;1.20;1.10;;;;;;;17.73;65.93;100128.64;130464;1268;109065;-77
2022/07/11 10:06:35;;;;;;;2.00;1.30;;;;;;;17.77;64.95;100131.36;130462;1268;108833;-76
2022/07/11 10:09:40;;;;;;;2.80;1.30;;;;;;;17.71;65.10;100129.81;130373;1268;108653;-77
2022/07/11 10:12:46;;;;;;;2.00;1.20;;;;;;;17.77;65.49;100127.95;130468;1268;108669;-77
2022/07/11 10:15:55;;;;;;;2.50;1.60;;;;;;;18.08;66.76;100126.63;130420;1268;108993;-77
2022/07/11 10:19:15;;;;;;;3.40;2.50;;;;;;;18.55;65.76;100123.71;130464;1268;108550;-77
2022/07/11 10:22:26;;;;;;;4.10;2.00;;;;;;;18.74;65.74;100126.30;130474;1268;108635;-77
2022/07/11 10:25:38;;;;;;;3.20;1.60;;;;;;;18.62;64.23;100130.29;130515;1268;109011;-77
2022/07/11 10:28:49;;;;;;;2.80;1.60;;;;;;;18.42;64.64;100131.40;130455;1268;108771;-77
2022/07/11 10:32:09;;;;;;;2.50;1.40;;;;;;;18.14;63.74;100131.42;130404;1268;108879;-77
2022/07/11 10:35:15;;;;;;;2.00;1.40;;;;;;;17.96;64.91;100132.05;130506;1268;108560;-77
2022/07/11 10:38:21;;;;;;;2.30;1.40;;;;;;;17.99;65.69;100126.33;130445;1268;108918;-77
2022/07/11 10:41:27;;;;;;;2.80;1.30;;;;;;;18.28;64.92;100125.37;130457;1268;108838;-77
2022/07/11 10:44:49;;;;;;;2.80;1.30;;;;;;;18.61;63.21;100125.71;130441;1267;108796;-77
2022/07/11 10:47:55;;;;;;;2.10;1.20;;;;;;;18.76;61.73;100127.52;130439;1268;108576;-75
2022/07/11 10:51:25;;;;;;;2.60;1.30;;;;;;;18.82;63.86;100124.86;130242;1270;108893;-75
2022/07/11 10:54:51;;;;;;;1.90;1.20;;;;;;;19.08;64.03;100118.05;130457;1268;108819;-75
2022/07/11 10:58:04;;;;;;;2.80;1.60;;;;;;;19.19;64.03;100119.92;130267;1267;108667;-76
2022/07/11 11:01:14;;;;;;;1.10;1.00;;;;;;;19.31;62.01;100116.39;130493;1267;109523;-75
2022/07/11 11:04:44;;;;;;;1.90;1.20;;;;;;;19.44;63.25;100121.71;130481;1268;109080;-76
2022/07/11 11:07:51;;;;;;;1.80;1.10;;;;;;;19.49;60.53;100126.15;130503;1267;108884;-75
2022/07/11 11:10:56;;;;;;;1.90;0.80;;;;;;;19.55;59.61;100130.11;130463;1268;108772;-77
2022/07/11 11:14:27;;;;;;;1.00;0.60;;;;;;;19.51;60.50;100131.97;130428;1268;108753;-77
2022/07/11 11:17:39;;;;;;;1.50;0.80;;;;;;;19.41;59.70;100129.84;130509;1268;108136;-77
2022/07/11 11:20:45;;;;;;;2.10;0.60;;;;;;;19.11;58.09;100143.59;130483;1267;108759;-78
2022/07/11 11:24:08;;;;;;;1.40;0.60;;;;;;;18.81;58.54;100146.25;130520;1268;108919;-76
2022/07/11 11:27:21;;;;;;;0.90;0.60;;;;;;;18.84;59.00;100149.08;130543;1268;109685;-76
2022/07/11 11:30:27;;;;;;;1.70;0.70;;;;;;;18.93;58.64;100157.80;130447;1267;108983;-76
2022/07/11 11:33:34;;;;;;;1.10;0.70;;;;;;;18.96;59.49;100152.73;130478;1268;108989;-76
2022/07/11 11:36:40;;;;;;;1.50;0.70;;;;;;;19.05;59.18;100156.00;130410;1268;108704;-76
2022/07/11 11:39:46;;;;;;;0.80;0.70;;;;;;;19.27;60.70;100145.62;130395;1268;108802;-76
2022/07/11 11:42:51;;;;;;;2.00;0.60;;;;;;;19.50;58.24;100143.08;130435;1268;108748;-76
2022/07/11 11:45:57;;;;;;;1.10;0.50;;;;;;;19.45;57.34;100151.60;130217;1270;108914;-76
2022/07/11 11:49:04;;;;;;;1.20;0.60;;;;;;;19.47;58.01;100143.60;130480;1267;109129;-76
2022/07/11 11:52:10;;;;;;;1.60;0.60;;;;;;;19.44;56.85;100142.86;130483;1268;108566;-76
2022/07/11 11:55:16;;;;;;;1.80;0.60;;;;;;;19.39;56.87;100143.83;130477;1268;107169;-75
2022/07/11 11:58:22;;;;;;;0.60;0.60;;;;;;;19.56;58.54;100137.27;130543;1267;108147;-76
2022/07/11 12:01:31;;;;;;;0.60;0.60;;;;;;;19.79;57.48;100129.27;130430;1267;108912;-76
2022/07/11 12:04:38;;;;;;;0.70;0.50;;;;;;;19.87;55.43;100132.36;130531;1268;108855;-76
2022/07/11 12:07:44;;;;;;;1.40;0.60;;;;;;;20.07;57.72;100132.41;130398;1268;108985;-76
2022/07/11 12:10:57;;;;;;;0.60;0.60;;;;;;;20.29;57.73;100134.82;130426;1268;107840;-76
2022/07/11 12:14:06;;;;;;;2.20;0.80;;;;;;;20.39;56.75;100137.20;130467;1268;107423;-76
2022/07/11 12:17:12;;;;;;;1.00;0.70;;;;;;;20.53;57.33;100133.10;130427;1267;107720;-76
2022/07/11 12:20:51;;;;;;;0.70;0.60;;;;;;;20.63;57.18;100132.66;130449;1267;108753;-76
2022/07/11 12:23:56;;;;;;;1.30;0.60;;;;;;;20.25;56.94;100134.14;130446;1268;108695;-76
2022/07/11 12:27:03;;;;;;;1.20;0.70;;;;;;;19.80;57.24;100142.83;130429;1268;109821;-76
2022/07/11 12:30:24;;;;;;;1.20;0.60;;;;;;;19.36;56.94;100152.58;130484;1268;108676;-76
2022/07/11 12:33:29;;;;;;;1.00;0.60;;;;;;;18.96;56.74;100156.09;130492;1268;108851;-76
2022/07/11 12:36:35;;;;;;;1.60;0.50;;;;;;;18.62;56.33;100163.13;130449;1268;108975;-76
2022/07/11 12:39:49;;;;;;;0.70;0.50;;;;;;;18.31;57.35;100161.45;130445;1268;108558;-76
2022/07/11 12:42:55;;;;;;;1.10;0.70;;;;;;;18.06;57.85;100163.02;130512;1268;107697;-76
2022/07/11 12:46:06;;;;;;;1.40;0.70;;;;;;;17.86;58.17;100166.13;130500;1268;108822;-76
2022/07/11 12:49:13;;;;;;;1.70;0.70;;;;;;;17.68;58.93;100168.40;130496;1268;108421;-75
2022/07/11 12:52:18;;;;;;;4.10;1.00;;;;;;;17.53;59.55;100170.37;130470;1268;108757;-75
2022/07/11 12:55:26;;;;;;;1.30;0.90;;;;;;;17.40;60.39;100174.91;130481;1268;108719;-76
2022/07/11 12:58:40;;;;;;;1.80;1.10;;;;;;;17.25;60.94;100183.21;130461;1268;108888;-77
2022/07/11 13:01:58;;;;;;;1.20;1.00;;;;;;;17.20;61.45;100190.86;130493;1268;107277;-77
2022/07/11 13:05:04;;;;;;;1.10;0.90;;;;;;;17.15;62.69;100197.10;130531;1268;107914;-77
2022/07/11 13:11:31;;;;;;;1.60;1.00;;;;;;;17.00;63.73;100203.59;129973;1268;462514;-77
2022/07/11 13:17:59;;;;;;;1.50;1.00;;;;;;;17.02;63.76;100200.79;130516;1267;108789;-77
2022/07/11 13:21:06;;;;;;;2.20;1.00;;;;;;;17.02;64.39;100197.59;130452;1268;108805;-76
2022/07/11 13:24:11;;;;;;;1.60;1.00;;;;;;;16.97;64.77;100198.79;130514;1268;108790;-77
2022/07/11 13:27:17;;;;;;;3.20;1.00;;;;;;;16.94;64.62;100198.28;130458;1268;108808;-77
2022/07/11 13:30:27;;;;;;;1.00;0.80;;;;;;;16.98;64.61;100190.67;130495;1268;108819;-77
2022/07/11 13:33:33;;;;;;;2.00;0.80;;;;;;;17.04;64.97;100193.11;130274;1268;108783;-77
2022/07/11 13:36:39;;;;;;;1.40;0.90;;;;;;;17.07;64.90;100188.75;130487;1268;108428;-77
2022/07/11 13:39:44;;;;;;;2.20;0.90;;;;;;;17.16;64.87;100191.29;130520;1267;109269;-76
2022/07/11 13:42:52;;;;;;;4.00;1.10;;;;;;;17.28;64.90;100190.81;130493;1267;108690;-76
2022/07/11 13:45:57;;;;;;;1.70;0.90;;;;;;;17.38;64.94;100182.74;130492;1267;107212;-76
2022/07/11 13:49:03;;;;;;;2.30;0.80;;;;;;;17.49;64.91;100174.95;130512;1268;109813;-76
2022/07/11 13:52:08;;;;;;;1.60;0.90;;;;;;;17.59;64.78;100173.34;130221;1270;107662;-76
2022/07/11 13:55:14;;;;;;;1.10;0.70;;;;;;;17.69;64.73;100175.92;130482;1268;108470;-76
2022/07/11 13:58:26;;;;;;;0.80;0.70;;;;;;;17.80;64.82;100177.73;130480;1268;108651;-76
2022/07/11 14:01:30;;;;;;;;;;;;;;;17.83;64.31;100181.48;130508;1268;108510;-76
2022/07/11 14:04:35;;;;;;;1.70;0.90;;;;;;;17.83;65.11;100183.81;130511;1268;108756;-77
2022/07/11 14:07:41;;;;;;;1.00;0.80;;;;;;;17.79;65.27;100187.45;130489;1268;108777;-76
2022/07/11 14:10:46;;;;;;;1.20;0.70;;;;;;;17.78;65.02;100187.98;130198;1267;108659;-74
2022/07/11 14:13:52;;;;;;;2.40;1.00;;;;;;;17.79;64.73;100189.45;130456;1268;108677;-75
2022/07/11 14:16:57;;;;;;;1.90;0.80;;;;;;;17.78;64.93;100195.09;130492;1268;108721;-75
2022/07/11 14:20:03;;;;;;;1.80;1.10;;;;;;;17.79;65.39;100193.94;130466;1268;109657;-74
2022/07/11 14:23:09;;;;;;;2.10;1.00;;;;;;;17.89;65.50;100194.61;130495;1268;108712;-74
2022/07/11 14:26:14;;;;;;;2.70;0.80;;;;;;;18.07;65.31;100197.58;130501;1268;108864;-75
2022/07/11 14:29:20;;;;;;;1.40;0.90;;;;;;;18.21;65.01;100190.15;130507;1268;108721;-74